sensor_id;sensor_type;location;lat;lon;timestamp;P1;durP1;ratioP1;P2;durP2;ratioP2
41217;SDS011;26950;50.960;7.138;2024-03-25T00:01:03;14.40;;;3.20;;
41217;SDS011;26950;50.960;7.138;2024-03-25T00:03:29;13.07;;;2.90;;
41217;SDS011;26950;50.960;7.138;2024-03-25T00:05:55;12.53;;;3.00;;
41217;SDS011;26950;50.960;7.138;2024-03-25T00:08:23;11.83;;;2.73;;
41217;SDS011;26950;50.960;7.138;2024-03-25T00:10:50;15.67;;;2.63;;
41217;SDS011;26950;50.960;7.138;2024-03-25T00:13:15;15.03;;;3.00;;
41217;SDS011;26950;50.960;7.138;2024-03-25T00:15:41;18.57;;;3.00;;
41217;SDS011;26950;50.960;7.138;2024-03-25T00:18:08;14.50;;;3.53;;
41217;SDS011;26950;50.960;7.138;2024-03-25T00:20:36;16.80;;;3.33;;
41217;SDS011;26950;50.960;7.138;2024-03-25T00:23:01;20.07;;;3.67;;
41217;SDS011;26950;50.960;7.138;2024-03-25T00:25:29;13.00;;;2.73;;
41217;SDS011;26950;50.960;7.138;2024-03-25T00:27:55;14.17;;;2.80;;
41217;SDS011;26950;50.960;7.138;2024-03-25T00:30:21;17.67;;;3.20;;
41217;SDS011;26950;50.960;7.138;2024-03-25T00:32:47;15.20;;;3.40;;
41217;SDS011;26950;50.960;7.138;2024-03-25T00:35:14;18.77;;;2.83;;
41217;SDS011;26950;50.960;7.138;2024-03-25T00:37:39;19.13;;;4.10;;
41217;SDS011;26950;50.960;7.138;2024-03-25T00:40:06;17.10;;;3.80;;
41217;SDS011;26950;50.960;7.138;2024-03-25T00:42:34;16.83;;;3.90;;
41217;SDS011;26950;50.960;7.138;2024-03-25T00:45:00;15.03;;;3.10;;
41217;SDS011;26950;50.960;7.138;2024-03-25T00:47:26;15.37;;;3.27;;
41217;SDS011;26950;50.960;7.138;2024-03-25T00:49:52;11.40;;;3.10;;
41217;SDS011;26950;50.960;7.138;2024-03-25T00:52:18;14.83;;;3.33;;
41217;SDS011;26950;50.960;7.138;2024-03-25T00:54:45;13.30;;;2.90;;
41217;SDS011;26950;50.960;7.138;2024-03-25T00:57:10;17.13;;;3.43;;
41217;SDS011;26950;50.960;7.138;2024-03-25T00:59:39;19.87;;;3.43;;
41217;SDS011;26950;50.960;7.138;2024-03-25T01:02:04;10.90;;;2.93;;
41217;SDS011;26950;50.960;7.138;2024-03-25T01:04:31;15.73;;;3.23;;
41217;SDS011;26950;50.960;7.138;2024-03-25T01:06:56;16.43;;;3.50;;
41217;SDS011;26950;50.960;7.138;2024-03-25T01:09:23;10.37;;;3.27;;
41217;SDS011;26950;50.960;7.138;2024-03-25T01:11:50;9.23;;;2.90;;
41217;SDS011;26950;50.960;7.138;2024-03-25T01:14:16;12.83;;;3.67;;
41217;SDS011;26950;50.960;7.138;2024-03-25T01:16:43;17.87;;;3.97;;
41217;SDS011;26950;50.960;7.138;2024-03-25T01:19:10;11.00;;;2.97;;
41217;SDS011;26950;50.960;7.138;2024-03-25T01:21:35;17.83;;;3.83;;
41217;SDS011;26950;50.960;7.138;2024-03-25T01:24:02;9.53;;;3.00;;
41217;SDS011;26950;50.960;7.138;2024-03-25T01:26:27;15.13;;;3.63;;
41217;SDS011;26950;50.960;7.138;2024-03-25T01:28:54;15.43;;;4.20;;
41217;SDS011;26950;50.960;7.138;2024-03-25T01:31:20;15.37;;;3.30;;
41217;SDS011;26950;50.960;7.138;2024-03-25T01:33:48;15.17;;;3.33;;
41217;SDS011;26950;50.960;7.138;2024-03-25T01:36:14;14.83;;;3.00;;
41217;SDS011;26950;50.960;7.138;2024-03-25T01:38:42;14.57;;;3.63;;
41217;SDS011;26950;50.960;7.138;2024-03-25T01:41:09;18.43;;;3.53;;
41217;SDS011;26950;50.960;7.138;2024-03-25T01:43:35;24.93;;;4.10;;
41217;SDS011;26950;50.960;7.138;2024-03-25T01:46:02;14.40;;;3.43;;
41217;SDS011;26950;50.960;7.138;2024-03-25T01:48:27;16.30;;;3.23;;
41217;SDS011;26950;50.960;7.138;2024-03-25T01:50:55;20.33;;;3.60;;
41217;SDS011;26950;50.960;7.138;2024-03-25T01:53:21;13.87;;;3.20;;
41217;SDS011;26950;50.960;7.138;2024-03-25T01:55:50;13.20;;;3.40;;
41217;SDS011;26950;50.960;7.138;2024-03-25T01:58:20;12.23;;;3.40;;
41217;SDS011;26950;50.960;7.138;2024-03-25T02:00:48;18.40;;;3.37;;
41217;SDS011;26950;50.960;7.138;2024-03-25T02:03:14;17.90;;;3.20;;
41217;SDS011;26950;50.960;7.138;2024-03-25T02:05:41;14.43;;;2.90;;
41217;SDS011;26950;50.960;7.138;2024-03-25T02:08:09;16.63;;;3.07;;
41217;SDS011;26950;50.960;7.138;2024-03-25T02:10:36;12.97;;;3.07;;
41217;SDS011;26950;50.960;7.138;2024-03-25T02:13:03;14.20;;;2.93;;
41217;SDS011;26950;50.960;7.138;2024-03-25T02:15:29;12.83;;;3.13;;
41217;SDS011;26950;50.960;7.138;2024-03-25T02:17:55;17.87;;;3.43;;
41217;SDS011;26950;50.960;7.138;2024-03-25T02:20:21;15.17;;;3.90;;
41217;SDS011;26950;50.960;7.138;2024-03-25T02:22:47;17.60;;;3.00;;
41217;SDS011;26950;50.960;7.138;2024-03-25T02:25:15;14.80;;;3.27;;
41217;SDS011;26950;50.960;7.138;2024-03-25T02:27:43;20.77;;;3.40;;
41217;SDS011;26950;50.960;7.138;2024-03-25T02:30:11;15.70;;;2.87;;
41217;SDS011;26950;50.960;7.138;2024-03-25T02:32:37;15.90;;;3.43;;
41217;SDS011;26950;50.960;7.138;2024-03-25T02:35:05;17.73;;;3.43;;
41217;SDS011;26950;50.960;7.138;2024-03-25T02:37:32;17.80;;;3.23;;
41217;SDS011;26950;50.960;7.138;2024-03-25T02:39:59;18.03;;;3.20;;
41217;SDS011;26950;50.960;7.138;2024-03-25T02:42:26;15.57;;;3.10;;
41217;SDS011;26950;50.960;7.138;2024-03-25T02:44:54;14.43;;;3.07;;
41217;SDS011;26950;50.960;7.138;2024-03-25T02:47:20;19.33;;;2.70;;
41217;SDS011;26950;50.960;7.138;2024-03-25T02:49:47;18.37;;;3.60;;
41217;SDS011;26950;50.960;7.138;2024-03-25T02:52:13;16.00;;;3.63;;
41217;SDS011;26950;50.960;7.138;2024-03-25T02:54:40;20.50;;;3.27;;
41217;SDS011;26950;50.960;7.138;2024-03-25T02:57:05;15.27;;;3.27;;
41217;SDS011;26950;50.960;7.138;2024-03-25T02:59:32;14.23;;;3.17;;
41217;SDS011;26950;50.960;7.138;2024-03-25T03:01:59;16.00;;;3.37;;
41217;SDS011;26950;50.960;7.138;2024-03-25T03:04:25;14.07;;;2.93;;
41217;SDS011;26950;50.960;7.138;2024-03-25T03:06:50;17.60;;;3.20;;
41217;SDS011;26950;50.960;7.138;2024-03-25T03:09:17;15.77;;;3.47;;
41217;SDS011;26950;50.960;7.138;2024-03-25T03:11:42;18.30;;;3.00;;
41217;SDS011;26950;50.960;7.138;2024-03-25T03:14:09;15.03;;;2.90;;
41217;SDS011;26950;50.960;7.138;2024-03-25T03:16:35;13.83;;;2.97;;
41217;SDS011;26950;50.960;7.138;2024-03-25T03:19:03;15.37;;;2.83;;
41217;SDS011;26950;50.960;7.138;2024-03-25T03:21:28;19.60;;;3.17;;
41217;SDS011;26950;50.960;7.138;2024-03-25T03:23:55;17.23;;;3.77;;
41217;SDS011;26950;50.960;7.138;2024-03-25T03:26:21;13.33;;;2.83;;
41217;SDS011;26950;50.960;7.138;2024-03-25T03:28:51;17.40;;;3.20;;
41217;SDS011;26950;50.960;7.138;2024-03-25T03:31:17;12.57;;;2.63;;
41217;SDS011;26950;50.960;7.138;2024-03-25T03:33:44;18.17;;;3.23;;
41217;SDS011;26950;50.960;7.138;2024-03-25T03:36:10;15.70;;;3.33;;
41217;SDS011;26950;50.960;7.138;2024-03-25T03:38:37;13.87;;;2.87;;
41217;SDS011;26950;50.960;7.138;2024-03-25T03:41:03;16.00;;;3.00;;
41217;SDS011;26950;50.960;7.138;2024-03-25T03:43:29;16.63;;;2.87;;
41217;SDS011;26950;50.960;7.138;2024-03-25T03:45:55;19.27;;;3.87;;
41217;SDS011;26950;50.960;7.138;2024-03-25T03:48:21;11.13;;;2.77;;
41217;SDS011;26950;50.960;7.138;2024-03-25T03:50:47;18.57;;;2.77;;
41217;SDS011;26950;50.960;7.138;2024-03-25T03:53:14;11.03;;;2.80;;
41217;SDS011;26950;50.960;7.138;2024-03-25T03:55:40;21.03;;;3.50;;
41217;SDS011;26950;50.960;7.138;2024-03-25T03:58:06;20.03;;;3.60;;
41217;SDS011;26950;50.960;7.138;2024-03-25T04:00:33;20.63;;;3.80;;
41217;SDS011;26950;50.960;7.138;2024-03-25T04:03:00;19.60;;;3.83;;
41217;SDS011;26950;50.960;7.138;2024-03-25T04:05:28;15.63;;;3.10;;
41217;SDS011;26950;50.960;7.138;2024-03-25T04:07:55;17.53;;;3.10;;
41217;SDS011;26950;50.960;7.138;2024-03-25T04:10:22;14.37;;;3.00;;
41217;SDS011;26950;50.960;7.138;2024-03-25T04:12:49;15.70;;;3.27;;
41217;SDS011;26950;50.960;7.138;2024-03-25T04:15:15;15.90;;;2.80;;
41217;SDS011;26950;50.960;7.138;2024-03-25T04:17:42;12.83;;;3.30;;
41217;SDS011;26950;50.960;7.138;2024-03-25T04:20:10;18.70;;;2.90;;
41217;SDS011;26950;50.960;7.138;2024-03-25T04:22:37;13.73;;;3.10;;
41217;SDS011;26950;50.960;7.138;2024-03-25T04:25:07;14.77;;;3.37;;
41217;SDS011;26950;50.960;7.138;2024-03-25T04:27:35;14.77;;;3.03;;
41217;SDS011;26950;50.960;7.138;2024-03-25T04:30:00;12.63;;;3.17;;
41217;SDS011;26950;50.960;7.138;2024-03-25T04:32:27;13.03;;;2.77;;
41217;SDS011;26950;50.960;7.138;2024-03-25T04:34:52;15.20;;;3.60;;
41217;SDS011;26950;50.960;7.138;2024-03-25T04:37:19;15.03;;;3.07;;
41217;SDS011;26950;50.960;7.138;2024-03-25T04:39:44;15.40;;;3.17;;
41217;SDS011;26950;50.960;7.138;2024-03-25T04:42:10;13.50;;;2.93;;
41217;SDS011;26950;50.960;7.138;2024-03-25T04:44:37;10.77;;;2.67;;
41217;SDS011;26950;50.960;7.138;2024-03-25T04:47:02;13.47;;;2.77;;
41217;SDS011;26950;50.960;7.138;2024-03-25T04:49:28;15.47;;;2.80;;
41217;SDS011;26950;50.960;7.138;2024-03-25T04:51:53;17.33;;;3.37;;
41217;SDS011;26950;50.960;7.138;2024-03-25T04:54:19;19.43;;;3.03;;
41217;SDS011;26950;50.960;7.138;2024-03-25T04:56:45;11.93;;;2.93;;
41217;SDS011;26950;50.960;7.138;2024-03-25T04:59:10;8.77;;;2.70;;
41217;SDS011;26950;50.960;7.138;2024-03-25T05:01:37;13.67;;;2.93;;
41217;SDS011;26950;50.960;7.138;2024-03-25T05:04:03;18.93;;;3.23;;
41217;SDS011;26950;50.960;7.138;2024-03-25T05:06:28;11.50;;;2.77;;
41217;SDS011;26950;50.960;7.138;2024-03-25T05:08:54;19.33;;;2.67;;
41217;SDS011;26950;50.960;7.138;2024-03-25T05:11:20;13.33;;;3.07;;
41217;SDS011;26950;50.960;7.138;2024-03-25T05:13:45;16.07;;;2.97;;
41217;SDS011;26950;50.960;7.138;2024-03-25T05:16:11;12.73;;;2.63;;
41217;SDS011;26950;50.960;7.138;2024-03-25T05:18:38;14.87;;;3.23;;
41217;SDS011;26950;50.960;7.138;2024-03-25T05:21:03;11.47;;;2.50;;
41217;SDS011;26950;50.960;7.138;2024-03-25T05:23:29;13.20;;;2.27;;
41217;SDS011;26950;50.960;7.138;2024-03-25T05:25:55;14.27;;;2.70;;
41217;SDS011;26950;50.960;7.138;2024-03-25T05:28:20;12.03;;;2.50;;
41217;SDS011;26950;50.960;7.138;2024-03-25T05:30:46;14.13;;;2.80;;
41217;SDS011;26950;50.960;7.138;2024-03-25T05:33:11;13.07;;;2.97;;
41217;SDS011;26950;50.960;7.138;2024-03-25T05:35:38;12.43;;;2.87;;
41217;SDS011;26950;50.960;7.138;2024-03-25T05:38:06;10.83;;;2.63;;
41217;SDS011;26950;50.960;7.138;2024-03-25T05:40:31;12.07;;;2.90;;
41217;SDS011;26950;50.960;7.138;2024-03-25T05:42:57;10.60;;;2.30;;
41217;SDS011;26950;50.960;7.138;2024-03-25T05:45:22;10.33;;;2.70;;
41217;SDS011;26950;50.960;7.138;2024-03-25T05:47:49;12.13;;;2.80;;
41217;SDS011;26950;50.960;7.138;2024-03-25T05:50:15;14.47;;;3.23;;
41217;SDS011;26950;50.960;7.138;2024-03-25T05:52:42;9.90;;;3.03;;
41217;SDS011;26950;50.960;7.138;2024-03-25T05:55:08;10.60;;;2.70;;
41217;SDS011;26950;50.960;7.138;2024-03-25T05:57:34;12.77;;;3.63;;
41217;SDS011;26950;50.960;7.138;2024-03-25T05:59:59;10.93;;;2.90;;
41217;SDS011;26950;50.960;7.138;2024-03-25T06:02:25;17.77;;;3.13;;
41217;SDS011;26950;50.960;7.138;2024-03-25T06:04:50;15.33;;;3.50;;
41217;SDS011;26950;50.960;7.138;2024-03-25T06:07:16;16.67;;;3.20;;
41217;SDS011;26950;50.960;7.138;2024-03-25T06:09:43;14.73;;;4.00;;
41217;SDS011;26950;50.960;7.138;2024-03-25T06:12:09;12.00;;;3.10;;
41217;SDS011;26950;50.960;7.138;2024-03-25T06:14:34;14.03;;;3.13;;
41217;SDS011;26950;50.960;7.138;2024-03-25T06:17:00;15.27;;;3.40;;
41217;SDS011;26950;50.960;7.138;2024-03-25T06:19:25;14.33;;;3.53;;
41217;SDS011;26950;50.960;7.138;2024-03-25T06:21:51;16.73;;;3.70;;
41217;SDS011;26950;50.960;7.138;2024-03-25T06:24:16;18.47;;;3.20;;
41217;SDS011;26950;50.960;7.138;2024-03-25T06:26:43;11.87;;;3.30;;
41217;SDS011;26950;50.960;7.138;2024-03-25T06:29:09;15.93;;;3.27;;
41217;SDS011;26950;50.960;7.138;2024-03-25T06:31:35;23.07;;;4.10;;
41217;SDS011;26950;50.960;7.138;2024-03-25T06:34:19;20.33;;;4.10;;
41217;SDS011;26950;50.960;7.138;2024-03-25T06:36:44;17.23;;;3.23;;
41217;SDS011;26950;50.960;7.138;2024-03-25T06:39:10;17.73;;;4.03;;
41217;SDS011;26950;50.960;7.138;2024-03-25T06:41:36;20.47;;;3.90;;
41217;SDS011;26950;50.960;7.138;2024-03-25T06:44:03;16.53;;;4.00;;
41217;SDS011;26950;50.960;7.138;2024-03-25T06:46:28;19.90;;;4.97;;
41217;SDS011;26950;50.960;7.138;2024-03-25T06:48:54;14.73;;;3.60;;
41217;SDS011;26950;50.960;7.138;2024-03-25T06:51:20;15.37;;;4.37;;
41217;SDS011;26950;50.960;7.138;2024-03-25T06:53:45;17.83;;;5.07;;
41217;SDS011;26950;50.960;7.138;2024-03-25T06:56:11;15.63;;;4.70;;
41217;SDS011;26950;50.960;7.138;2024-03-25T06:58:36;16.07;;;4.20;;
41217;SDS011;26950;50.960;7.138;2024-03-25T07:01:07;12.10;;;4.30;;
41217;SDS011;26950;50.960;7.138;2024-03-25T07:03:34;17.43;;;4.37;;
41217;SDS011;26950;50.960;7.138;2024-03-25T07:06:00;19.33;;;4.77;;
41217;SDS011;26950;50.960;7.138;2024-03-25T07:08:26;15.37;;;4.60;;
41217;SDS011;26950;50.960;7.138;2024-03-25T07:10:52;19.43;;;4.73;;
41217;SDS011;26950;50.960;7.138;2024-03-25T07:13:18;17.60;;;4.50;;
41217;SDS011;26950;50.960;7.138;2024-03-25T07:15:44;15.60;;;4.40;;
41217;SDS011;26950;50.960;7.138;2024-03-25T07:18:11;17.00;;;4.77;;
41217;SDS011;26950;50.960;7.138;2024-03-25T07:20:36;15.90;;;4.63;;
41217;SDS011;26950;50.960;7.138;2024-03-25T07:23:02;15.63;;;4.07;;
41217;SDS011;26950;50.960;7.138;2024-03-25T07:25:28;15.37;;;4.50;;
41217;SDS011;26950;50.960;7.138;2024-03-25T07:27:54;15.97;;;4.70;;
41217;SDS011;26950;50.960;7.138;2024-03-25T07:30:20;16.60;;;4.50;;
41217;SDS011;26950;50.960;7.138;2024-03-25T07:32:46;20.77;;;4.40;;
41217;SDS011;26950;50.960;7.138;2024-03-25T07:35:13;14.30;;;4.33;;
41217;SDS011;26950;50.960;7.138;2024-03-25T07:37:39;13.80;;;4.10;;
41217;SDS011;26950;50.960;7.138;2024-03-25T07:40:05;16.80;;;4.27;;
41217;SDS011;26950;50.960;7.138;2024-03-25T07:42:31;18.30;;;4.77;;
41217;SDS011;26950;50.960;7.138;2024-03-25T07:44:57;13.73;;;4.07;;
41217;SDS011;26950;50.960;7.138;2024-03-25T07:47:22;15.00;;;3.90;;
41217;SDS011;26950;50.960;7.138;2024-03-25T07:49:48;16.73;;;4.30;;
41217;SDS011;26950;50.960;7.138;2024-03-25T07:52:15;17.67;;;4.23;;
41217;SDS011;26950;50.960;7.138;2024-03-25T07:54:40;24.77;;;4.40;;
41217;SDS011;26950;50.960;7.138;2024-03-25T07:57:06;19.17;;;4.57;;
41217;SDS011;26950;50.960;7.138;2024-03-25T07:59:31;14.57;;;4.27;;
41217;SDS011;26950;50.960;7.138;2024-03-25T08:01:57;19.73;;;4.50;;
41217;SDS011;26950;50.960;7.138;2024-03-25T08:04:22;13.27;;;3.73;;
41217;SDS011;26950;50.960;7.138;2024-03-25T08:06:48;15.60;;;3.93;;
41217;SDS011;26950;50.960;7.138;2024-03-25T08:09:15;14.77;;;3.60;;
41217;SDS011;26950;50.960;7.138;2024-03-25T08:11:41;15.30;;;3.87;;
41217;SDS011;26950;50.960;7.138;2024-03-25T08:14:06;12.50;;;3.47;;
41217;SDS011;26950;50.960;7.138;2024-03-25T08:16:32;16.30;;;3.83;;
41217;SDS011;26950;50.960;7.138;2024-03-25T08:18:58;17.77;;;4.37;;
41217;SDS011;26950;50.960;7.138;2024-03-25T08:21:23;18.83;;;3.20;;
41217;SDS011;26950;50.960;7.138;2024-03-25T08:23:49;17.13;;;3.77;;
41217;SDS011;26950;50.960;7.138;2024-03-25T08:26:16;18.43;;;4.23;;
41217;SDS011;26950;50.960;7.138;2024-03-25T08:28:41;17.80;;;3.75;;
41217;SDS011;26950;50.960;7.138;2024-03-25T08:31:07;14.97;;;3.60;;
41217;SDS011;26950;50.960;7.138;2024-03-25T08:33:32;17.98;;;3.40;;
41217;SDS011;26950;50.960;7.138;2024-03-25T08:35:58;13.68;;;3.28;;
41217;SDS011;26950;50.960;7.138;2024-03-25T08:38:24;12.68;;;2.65;;
41217;SDS011;26950;50.960;7.138;2024-03-25T08:40:50;15.10;;;3.03;;
41217;SDS011;26950;50.960;7.138;2024-03-25T08:43:17;16.80;;;2.92;;
41217;SDS011;26950;50.960;7.138;2024-03-25T08:45:43;13.50;;;2.85;;
41217;SDS011;26950;50.960;7.138;2024-03-25T08:48:08;10.68;;;2.45;;
41217;SDS011;26950;50.960;7.138;2024-03-25T08:50:34;16.75;;;3.15;;
41217;SDS011;26950;50.960;7.138;2024-03-25T08:53:00;15.85;;;3.35;;
41217;SDS011;26950;50.960;7.138;2024-03-25T08:55:26;21.02;;;2.78;;
41217;SDS011;26950;50.960;7.138;2024-03-25T08:57:52;12.73;;;2.97;;
41217;SDS011;26950;50.960;7.138;2024-03-25T09:00:19;14.93;;;3.08;;
41217;SDS011;26950;50.960;7.138;2024-03-25T09:02:45;10.10;;;2.25;;
41217;SDS011;26950;50.960;7.138;2024-03-25T09:05:11;12.48;;;3.15;;
41217;SDS011;26950;50.960;7.138;2024-03-25T09:07:36;13.32;;;2.78;;
41217;SDS011;26950;50.960;7.138;2024-03-25T09:10:02;9.50;;;2.47;;
41217;SDS011;26950;50.960;7.138;2024-03-25T09:12:46;10.93;;;2.60;;
41217;SDS011;26950;50.960;7.138;2024-03-25T09:15:12;12.18;;;1.98;;
41217;SDS011;26950;50.960;7.138;2024-03-25T09:17:39;12.60;;;2.80;;
41217;SDS011;26950;50.960;7.138;2024-03-25T09:20:05;17.02;;;2.83;;
41217;SDS011;26950;50.960;7.138;2024-03-25T09:22:31;12.77;;;2.75;;
41217;SDS011;26950;50.960;7.138;2024-03-25T09:24:57;10.10;;;2.08;;
41217;SDS011;26950;50.960;7.138;2024-03-25T09:27:22;11.88;;;2.58;;
41217;SDS011;26950;50.960;7.138;2024-03-25T09:29:48;8.82;;;2.13;;
41217;SDS011;26950;50.960;7.138;2024-03-25T09:32:13;12.98;;;2.35;;
41217;SDS011;26950;50.960;7.138;2024-03-25T09:34:40;10.65;;;2.58;;
41217;SDS011;26950;50.960;7.138;2024-03-25T09:37:06;13.52;;;2.80;;
41217;SDS011;26950;50.960;7.138;2024-03-25T09:39:31;15.48;;;3.30;;
41217;SDS011;26950;50.960;7.138;2024-03-25T09:41:57;13.60;;;2.22;;
41217;SDS011;26950;50.960;7.138;2024-03-25T09:44:25;9.75;;;2.00;;
41217;SDS011;26950;50.960;7.138;2024-03-25T09:46:52;10.80;;;2.35;;
41217;SDS011;26950;50.960;7.138;2024-03-25T09:49:17;11.38;;;2.03;;
41217;SDS011;26950;50.960;7.138;2024-03-25T09:51:46;11.48;;;2.58;;
41217;SDS011;26950;50.960;7.138;2024-03-25T09:54:11;10.95;;;2.40;;
41217;SDS011;26950;50.960;7.138;2024-03-25T09:56:37;14.13;;;2.15;;
41217;SDS011;26950;50.960;7.138;2024-03-25T09:59:04;9.35;;;2.20;;
41217;SDS011;26950;50.960;7.138;2024-03-25T10:01:30;10.90;;;2.22;;
41217;SDS011;26950;50.960;7.138;2024-03-25T10:03:56;10.40;;;2.13;;
41217;SDS011;26950;50.960;7.138;2024-03-25T10:06:22;11.15;;;2.88;;
41217;SDS011;26950;50.960;7.138;2024-03-25T10:08:48;7.00;;;1.90;;
41217;SDS011;26950;50.960;7.138;2024-03-25T10:11:19;10.57;;;2.10;;
41217;SDS011;26950;50.960;7.138;2024-03-25T10:13:44;9.20;;;2.05;;
41217;SDS011;26950;50.960;7.138;2024-03-25T10:16:10;9.30;;;2.38;;
41217;SDS011;26950;50.960;7.138;2024-03-25T10:18:36;14.27;;;2.13;;
41217;SDS011;26950;50.960;7.138;2024-03-25T10:21:01;11.60;;;2.78;;
41217;SDS011;26950;50.960;7.138;2024-03-25T10:23:27;9.65;;;2.22;;
41217;SDS011;26950;50.960;7.138;2024-03-25T10:25:54;14.77;;;2.65;;
41217;SDS011;26950;50.960;7.138;2024-03-25T10:28:20;10.95;;;2.47;;
41217;SDS011;26950;50.960;7.138;2024-03-25T10:30:46;9.60;;;2.38;;
41217;SDS011;26950;50.960;7.138;2024-03-25T10:33:12;10.07;;;2.35;;
41217;SDS011;26950;50.960;7.138;2024-03-25T10:35:38;11.73;;;2.10;;
41217;SDS011;26950;50.960;7.138;2024-03-25T10:38:05;9.45;;;2.45;;
41217;SDS011;26950;50.960;7.138;2024-03-25T10:40:33;8.85;;;2.00;;
41217;SDS011;26950;50.960;7.138;2024-03-25T10:43:02;9.40;;;2.67;;
41217;SDS011;26950;50.960;7.138;2024-03-25T10:45:29;5.90;;;2.08;;
41217;SDS011;26950;50.960;7.138;2024-03-25T10:47:56;8.18;;;2.08;;
41217;SDS011;26950;50.960;7.138;2024-03-25T10:50:24;6.22;;;2.03;;
41217;SDS011;26950;50.960;7.138;2024-03-25T10:52:53;7.35;;;2.33;;
41217;SDS011;26950;50.960;7.138;2024-03-25T10:55:19;7.22;;;2.28;;
41217;SDS011;26950;50.960;7.138;2024-03-25T10:57:45;8.50;;;2.30;;
41217;SDS011;26950;50.960;7.138;2024-03-25T11:00:14;8.68;;;2.30;;
41217;SDS011;26950;50.960;7.138;2024-03-25T11:02:41;8.20;;;2.45;;
41217;SDS011;26950;50.960;7.138;2024-03-25T11:05:07;6.10;;;2.15;;
41217;SDS011;26950;50.960;7.138;2024-03-25T11:07:34;8.80;;;2.17;;
41217;SDS011;26950;50.960;7.138;2024-03-25T11:10:03;9.85;;;2.20;;
41217;SDS011;26950;50.960;7.138;2024-03-25T11:12:34;5.82;;;1.67;;
41217;SDS011;26950;50.960;7.138;2024-03-25T11:15:01;6.53;;;1.70;;
41217;SDS011;26950;50.960;7.138;2024-03-25T11:17:29;5.35;;;1.63;;
41217;SDS011;26950;50.960;7.138;2024-03-25T11:20:05;8.40;;;1.80;;
41217;SDS011;26950;50.960;7.138;2024-03-25T11:22:32;6.80;;;1.80;;
41217;SDS011;26950;50.960;7.138;2024-03-25T11:25:04;6.47;;;1.50;;
41217;SDS011;26950;50.960;7.138;2024-03-25T11:27:31;6.63;;;1.77;;
41217;SDS011;26950;50.960;7.138;2024-03-25T11:29:57;7.05;;;1.70;;
41217;SDS011;26950;50.960;7.138;2024-03-25T11:32:22;4.55;;;1.48;;
41217;SDS011;26950;50.960;7.138;2024-03-25T11:34:50;5.43;;;1.73;;
41217;SDS011;26950;50.960;7.138;2024-03-25T11:37:16;6.18;;;1.70;;
41217;SDS011;26950;50.960;7.138;2024-03-25T11:39:42;6.00;;;1.42;;
41217;SDS011;26950;50.960;7.138;2024-03-25T11:42:07;5.55;;;1.70;;
41217;SDS011;26950;50.960;7.138;2024-03-25T11:44:35;4.18;;;1.40;;
41217;SDS011;26950;50.960;7.138;2024-03-25T11:47:01;5.05;;;1.63;;
41217;SDS011;26950;50.960;7.138;2024-03-25T11:49:27;3.53;;;1.48;;
41217;SDS011;26950;50.960;7.138;2024-03-25T11:51:54;6.47;;;1.75;;
41217;SDS011;26950;50.960;7.138;2024-03-25T11:54:20;8.82;;;1.55;;
41217;SDS011;26950;50.960;7.138;2024-03-25T11:56:45;5.63;;;1.60;;
41217;SDS011;26950;50.960;7.138;2024-03-25T11:59:12;5.43;;;1.63;;
41217;SDS011;26950;50.960;7.138;2024-03-25T12:01:38;7.95;;;1.60;;
41217;SDS011;26950;50.960;7.138;2024-03-25T12:04:09;9.82;;;1.73;;
41217;SDS011;26950;50.960;7.138;2024-03-25T12:06:35;6.90;;;1.23;;
41217;SDS011;26950;50.960;7.138;2024-03-25T12:09:02;7.80;;;2.20;;
41217;SDS011;26950;50.960;7.138;2024-03-25T12:11:46;6.53;;;1.50;;
41217;SDS011;26950;50.960;7.138;2024-03-25T12:14:13;8.77;;;1.83;;
41217;SDS011;26950;50.960;7.138;2024-03-25T12:16:38;7.50;;;2.38;;
41217;SDS011;26950;50.960;7.138;2024-03-25T12:19:05;6.82;;;1.98;;
41217;SDS011;26950;50.960;7.138;2024-03-25T12:21:30;7.72;;;1.70;;
41217;SDS011;26950;50.960;7.138;2024-03-25T12:23:56;4.90;;;1.40;;
41217;SDS011;26950;50.960;7.138;2024-03-25T12:26:23;7.70;;;1.63;;
41217;SDS011;26950;50.960;7.138;2024-03-25T12:28:49;9.05;;;3.03;;
41217;SDS011;26950;50.960;7.138;2024-03-25T12:31:15;28.08;;;11.05;;
41217;SDS011;26950;50.960;7.138;2024-03-25T12:33:41;12.90;;;5.28;;
41217;SDS011;26950;50.960;7.138;2024-03-25T12:36:07;8.23;;;3.28;;
41217;SDS011;26950;50.960;7.138;2024-03-25T12:38:32;17.42;;;7.80;;
41217;SDS011;26950;50.960;7.138;2024-03-25T12:41:03;6.55;;;2.30;;
41217;SDS011;26950;50.960;7.138;2024-03-25T12:43:32;11.50;;;3.00;;
41217;SDS011;26950;50.960;7.138;2024-03-25T12:45:58;6.68;;;1.60;;
41217;SDS011;26950;50.960;7.138;2024-03-25T12:48:24;5.22;;;1.27;;
41217;SDS011;26950;50.960;7.138;2024-03-25T12:50:50;5.40;;;1.40;;
41217;SDS011;26950;50.960;7.138;2024-03-25T12:53:16;7.63;;;1.20;;
41217;SDS011;26950;50.960;7.138;2024-03-25T12:55:43;5.93;;;1.50;;
41217;SDS011;26950;50.960;7.138;2024-03-25T12:58:08;5.25;;;1.20;;
41217;SDS011;26950;50.960;7.138;2024-03-25T13:00:35;4.35;;;1.30;;
41217;SDS011;26950;50.960;7.138;2024-03-25T13:03:01;4.50;;;1.20;;
41217;SDS011;26950;50.960;7.138;2024-03-25T13:05:27;4.45;;;1.30;;
41217;SDS011;26950;50.960;7.138;2024-03-25T13:07:52;6.47;;;1.40;;
41217;SDS011;26950;50.960;7.138;2024-03-25T13:10:18;4.13;;;1.58;;
41217;SDS011;26950;50.960;7.138;2024-03-25T13:12:43;6.13;;;1.30;;
41217;SDS011;26950;50.960;7.138;2024-03-25T13:15:09;5.90;;;1.30;;
41217;SDS011;26950;50.960;7.138;2024-03-25T13:17:36;7.35;;;1.48;;
41217;SDS011;26950;50.960;7.138;2024-03-25T13:20:01;6.25;;;1.25;;
41217;SDS011;26950;50.960;7.138;2024-03-25T13:22:27;5.68;;;1.50;;
41217;SDS011;26950;50.960;7.138;2024-03-25T13:24:53;5.85;;;1.35;;
41217;SDS011;26950;50.960;7.138;2024-03-25T13:27:18;4.18;;;1.10;;
41217;SDS011;26950;50.960;7.138;2024-03-25T13:29:44;9.90;;;1.42;;
41217;SDS011;26950;50.960;7.138;2024-03-25T13:32:10;6.20;;;1.40;;
41217;SDS011;26950;50.960;7.138;2024-03-25T13:34:37;5.78;;;1.42;;
41217;SDS011;26950;50.960;7.138;2024-03-25T13:37:03;4.60;;;1.23;;
41217;SDS011;26950;50.960;7.138;2024-03-25T13:39:29;5.93;;;1.25;;
41217;SDS011;26950;50.960;7.138;2024-03-25T13:41:54;3.63;;;1.20;;
41217;SDS011;26950;50.960;7.138;2024-03-25T13:44:20;4.53;;;1.30;;
41217;SDS011;26950;50.960;7.138;2024-03-25T13:46:45;3.42;;;0.98;;
41217;SDS011;26950;50.960;7.138;2024-03-25T13:49:11;7.78;;;1.30;;
41217;SDS011;26950;50.960;7.138;2024-03-25T13:51:38;3.67;;;1.20;;
41217;SDS011;26950;50.960;7.138;2024-03-25T13:54:03;5.85;;;1.08;;
41217;SDS011;26950;50.960;7.138;2024-03-25T13:56:29;8.75;;;1.60;;
41217;SDS011;26950;50.960;7.138;2024-03-25T13:58:54;8.85;;;1.40;;
41217;SDS011;26950;50.960;7.138;2024-03-25T14:01:20;6.07;;;1.30;;
41217;SDS011;26950;50.960;7.138;2024-03-25T14:03:45;5.13;;;1.35;;
41217;SDS011;26950;50.960;7.138;2024-03-25T14:06:11;5.45;;;1.02;;
41217;SDS011;26950;50.960;7.138;2024-03-25T14:08:38;4.75;;;1.10;;
41217;SDS011;26950;50.960;7.138;2024-03-25T14:11:03;7.05;;;1.55;;
41217;SDS011;26950;50.960;7.138;2024-03-25T14:13:29;4.07;;;1.23;;
41217;SDS011;26950;50.960;7.138;2024-03-25T14:15:54;5.70;;;1.45;;
41217;SDS011;26950;50.960;7.138;2024-03-25T14:18:20;3.90;;;1.23;;
41217;SDS011;26950;50.960;7.138;2024-03-25T14:20:46;4.65;;;1.13;;
41217;SDS011;26950;50.960;7.138;2024-03-25T14:23:11;4.53;;;1.17;;
41217;SDS011;26950;50.960;7.138;2024-03-25T14:25:39;3.95;;;1.30;;
41217;SDS011;26950;50.960;7.138;2024-03-25T14:28:05;7.05;;;1.55;;
41217;SDS011;26950;50.960;7.138;2024-03-25T14:30:31;6.05;;;1.30;;
41217;SDS011;26950;50.960;7.138;2024-03-25T14:32:56;4.72;;;1.30;;